createdAt,value
2022-09-10T00:01:25.563Z,74.42
2022-09-10T00:03:54.795Z,74.55
2022-09-10T00:06:22.681Z,74.36
2022-09-10T00:08:49.343Z,74.63
2022-09-10T00:11:16.087Z,74.54
2022-09-10T00:13:42.979Z,74.52
2022-09-10T00:16:13.178Z,74.67
2022-09-10T00:18:40.813Z,74.46
2022-09-10T00:21:10.431Z,74.63
2022-09-10T00:23:37.601Z,74.88
2022-09-10T00:26:17.126Z,74.84
2022-09-10T00:28:44.318Z,74.91
2022-09-10T00:31:11.409Z,75.00
2022-09-10T00:33:38.346Z,75.13
2022-09-10T00:36:14.259Z,75.20
2022-09-10T00:38:41.834Z,75.14
2022-09-10T00:41:08.805Z,75.16
2022-09-10T00:44:15.753Z,75.50
2022-09-10T00:46:45.052Z,75.35
2022-09-10T00:49:18.065Z,75.37
2022-09-10T00:51:47.116Z,75.45
2022-09-10T00:54:15.012Z,75.64
2022-09-10T00:56:43.230Z,75.70
2022-09-10T00:59:10.524Z,75.93
2022-09-10T01:01:38.705Z,76.07
2022-09-10T01:04:06.485Z,75.81
2022-09-10T01:06:33.995Z,76.06
2022-09-10T01:09:01.821Z,76.19
2022-09-10T01:12:06.054Z,75.87
2022-09-10T01:14:47.956Z,76.28
2022-09-10T01:17:29.992Z,76.05
2022-09-10T01:20:19.788Z,76.35
2022-09-10T01:23:05.679Z,76.10
2022-09-10T01:26:11.034Z,76.06
2022-09-10T01:28:54.682Z,76.41
2022-09-10T01:31:49.458Z,76.77
2022-09-10T01:34:21.528Z,77.18
2022-09-10T01:36:50.509Z,76.95
2022-09-10T01:39:18.287Z,77.31
2022-09-10T01:41:46.039Z,77.26
2022-09-10T01:44:40.658Z,77.22
2022-09-10T01:47:14.875Z,77.14
2022-09-10T01:49:53.460Z,77.70
2022-09-10T01:52:25.546Z,77.44
2022-09-10T02:01:26.668Z,78.01
2022-09-10T02:03:57.633Z,77.76
2022-09-10T02:06:28.431Z,77.92
2022-09-10T02:08:57.350Z,77.95
2022-09-10T02:11:25.706Z,77.99
2022-09-10T02:13:53.651Z,78.36
2022-09-10T02:16:33.502Z,78.08
2022-09-10T02:19:01.578Z,78.47
2022-09-10T02:21:28.449Z,78.38
2022-09-10T02:23:58.716Z,78.09
2022-09-10T02:26:26.106Z,78.36
2022-09-10T02:28:54.641Z,77.95
2022-09-10T02:31:21.704Z,78.26
2022-09-10T02:33:49.316Z,78.36
2022-09-10T02:36:15.937Z,78.36
2022-09-10T02:38:42.608Z,78.79
2022-09-10T02:41:09.892Z,78.55
2022-09-10T02:43:38.310Z,78.49
2022-09-10T02:46:07.465Z,78.46
2022-09-10T02:48:36.107Z,78.65
2022-09-10T02:51:03.189Z,78.38
2022-09-10T02:53:31.818Z,78.66
2022-09-10T02:56:03.244Z,78.42
2022-09-10T02:58:34.226Z,78.53
2022-09-10T03:01:10.290Z,78.36
2022-09-10T03:03:39.377Z,78.60
2022-09-10T03:06:06.456Z,78.93
2022-09-10T03:08:33.217Z,78.89
2022-09-10T03:11:00.052Z,79.19
2022-09-10T03:13:27.837Z,79.22
2022-09-10T03:15:58.707Z,79.53
2022-09-10T03:18:27.569Z,79.46
2022-09-10T03:20:54.373Z,79.47
2022-09-10T03:23:21.155Z,79.52
2022-09-10T03:25:49.806Z,79.18
2022-09-10T03:28:17.245Z,79.09
2022-09-10T03:30:44.109Z,79.38
2022-09-10T03:33:11.907Z,79.09
2022-09-10T03:35:40.212Z,79.41
2022-09-10T03:38:06.945Z,79.37
2022-09-10T03:40:34.300Z,79.42
2022-09-10T03:43:01.479Z,79.15
2022-09-10T03:45:29.772Z,79.67
2022-09-10T03:47:56.593Z,79.47
2022-09-10T03:50:23.477Z,79.65
2022-09-10T03:52:51.149Z,79.86
2022-09-10T03:55:19.294Z,79.57
2022-09-10T03:57:46.288Z,79.55
2022-09-10T04:00:15.201Z,79.83
2022-09-10T04:02:42.226Z,79.72
2022-09-10T04:05:10.373Z,79.70
2022-09-10T04:07:37.990Z,79.69
2022-09-10T04:10:05.423Z,79.51
2022-09-10T04:12:32.139Z,79.62
2022-09-10T04:14:58.816Z,79.33
2022-09-10T04:17:26.039Z,79.36
2022-09-10T04:19:52.751Z,79.38
2022-09-10T04:22:19.478Z,79.60
2022-09-10T04:24:46.171Z,79.59
2022-09-10T04:27:12.989Z,79.42
2022-09-10T04:29:40.667Z,79.59
2022-09-10T04:32:07.433Z,79.76
2022-09-10T04:34:34.272Z,79.96
2022-09-10T04:37:02.525Z,80.00
2022-09-10T04:39:30.714Z,79.86
2022-09-10T04:41:58.513Z,79.92
2022-09-10T04:44:26.079Z,79.93
2022-09-10T04:46:52.819Z,80.13
2022-09-10T04:49:19.823Z,79.69
2022-09-10T04:51:47.193Z,79.97
2022-09-10T04:54:15.264Z,79.88
2022-09-10T04:56:43.772Z,79.88
2022-09-10T04:59:10.955Z,79.96
2022-09-10T05:01:38.062Z,79.95
2022-09-10T05:04:05.289Z,79.80
2022-09-10T05:06:35.546Z,80.02
2022-09-10T05:09:04.321Z,80.15
2022-09-10T05:11:32.013Z,80.06
2022-09-10T05:13:58.890Z,80.32
2022-09-10T05:16:28.808Z,80.07
2022-09-10T05:18:56.355Z,80.63
2022-09-10T05:21:25.019Z,80.47
2022-09-10T05:23:54.014Z,80.36
2022-09-10T05:26:20.880Z,80.41
2022-09-10T05:28:48.215Z,80.07
2022-09-10T05:31:17.401Z,80.23
2022-09-10T05:33:45.176Z,79.92
2022-09-10T05:36:14.778Z,80.31
2022-09-10T05:38:42.873Z,80.14
2022-09-10T05:41:10.725Z,80.34
2022-09-10T05:43:42.199Z,80.23
2022-09-10T05:46:10.589Z,80.31
2022-09-10T05:48:41.867Z,80.11
2022-09-10T05:51:10.253Z,80.06
2022-09-10T05:53:38.356Z,80.16
2022-09-10T05:56:07.459Z,79.88
2022-09-10T05:58:35.551Z,80.15
2022-09-10T06:01:02.498Z,79.90
2022-09-10T06:03:30.395Z,79.95
2022-09-10T06:06:01.064Z,79.97
2022-09-10T06:08:32.539Z,79.70
2022-09-10T06:11:07.613Z,79.92
2022-09-10T06:13:40.148Z,79.79
2022-09-10T06:16:07.889Z,79.78
2022-09-10T06:18:35.740Z,79.67
2022-09-10T06:21:10.303Z,79.27
2022-09-10T06:23:37.658Z,79.29
2022-09-10T06:26:08.292Z,79.12
2022-09-10T06:28:36.971Z,79.00
2022-09-10T06:31:05.710Z,78.83
2022-09-10T06:33:34.453Z,78.81
2022-09-10T06:36:02.309Z,78.47
2022-09-10T06:38:37.033Z,78.05
2022-09-10T06:41:08.245Z,78.11
2022-09-10T06:43:40.545Z,77.85
2022-09-10T06:46:50.717Z,77.98
2022-09-10T06:49:11.053Z,77.51
2022-09-10T06:51:39.892Z,77.47
2022-09-10T06:54:08.757Z,77.75
2022-09-10T06:56:35.453Z,77.56
2022-09-10T06:59:03.999Z,77.14
2022-09-10T07:01:35.956Z,77.54
2022-09-10T07:04:03.058Z,77.00
2022-09-10T07:06:33.824Z,76.79
2022-09-10T07:09:12.533Z,76.77
2022-09-10T07:12:09.557Z,76.49
2022-09-10T07:14:38.874Z,76.38
2022-09-10T07:17:08.066Z,76.21
2022-09-10T07:19:37.245Z,76.10
2022-09-10T07:22:09.198Z,75.88
2022-09-10T07:24:37.972Z,75.75
2022-09-10T07:27:11.261Z,75.83
2022-09-10T07:29:41.127Z,75.20
2022-09-10T07:32:13.629Z,75.23
2022-09-10T07:34:40.720Z,74.90
2022-09-10T07:37:07.567Z,74.83
2022-09-10T07:39:34.557Z,74.71
2022-09-10T07:42:02.538Z,74.60
2022-09-10T07:44:33.336Z,74.70
2022-09-10T07:47:03.545Z,74.72
2022-09-10T07:49:32.761Z,74.46
2022-09-10T07:52:00.244Z,74.37
2022-09-10T07:54:32.283Z,73.71
2022-09-10T07:57:00.232Z,73.50
2022-09-10T07:59:27.560Z,73.36
2022-09-10T08:02:00.364Z,73.22
2022-09-10T08:04:36.604Z,72.49
2022-09-10T08:07:05.048Z,72.55
2022-09-10T08:09:33.422Z,72.19
2022-09-10T08:12:02.217Z,72.21
2022-09-10T08:14:28.969Z,71.82
2022-09-10T08:16:56.364Z,71.73
2022-09-10T08:19:23.170Z,71.70
2022-09-10T08:21:51.497Z,71.70
2022-09-10T08:24:25.013Z,71.43
2022-09-10T08:26:52.889Z,71.16
2022-09-10T08:29:19.628Z,71.24
2022-09-10T08:31:46.314Z,70.91
2022-09-10T08:34:20.640Z,71.29
2022-09-10T08:36:55.651Z,71.16
2022-09-10T08:39:26.495Z,71.01
2022-09-10T08:42:01.014Z,70.88
2022-09-10T08:44:33.930Z,70.79
2022-09-10T08:47:10.284Z,70.46
2022-09-10T08:49:45.830Z,70.17
2022-09-10T08:52:34.112Z,70.38
2022-09-10T08:55:10.070Z,69.85
2022-09-10T08:57:42.305Z,69.88
2022-09-10T09:00:13.325Z,69.91
2022-09-10T09:02:49.800Z,69.68
2022-09-10T09:05:22.883Z,69.69
2022-09-10T09:07:53.252Z,69.34
2022-09-10T09:10:32.985Z,69.02
2022-09-10T09:13:23.316Z,68.51
2022-09-10T09:16:19.449Z,68.23
2022-09-10T09:19:14.304Z,68.15
2022-09-10T09:21:51.422Z,68.44
2022-09-10T09:24:22.418Z,68.29
2022-09-10T09:26:54.801Z,68.06
2022-09-10T09:29:40.334Z,68.21
2022-09-10T09:32:13.693Z,68.08
2022-09-10T09:34:44.328Z,67.94
2022-09-10T09:37:17.984Z,67.77
2022-09-10T09:40:02.594Z,67.54
2022-09-10T09:42:40.433Z,67.12
2022-09-10T09:45:39.705Z,67.03
2022-09-10T09:48:07.654Z,67.01
2022-09-10T09:50:38.961Z,66.68
2022-09-10T09:53:05.561Z,66.62
2022-09-10T09:55:41.184Z,66.10
2022-09-10T09:58:32.332Z,65.95
2022-09-10T10:01:05.167Z,65.96
2022-09-10T10:03:36.001Z,65.82
2022-09-10T10:06:06.636Z,65.89
2022-09-10T10:08:34.228Z,65.55
2022-09-10T10:11:01.609Z,65.33
2022-09-10T10:13:38.822Z,65.08
2022-09-10T10:16:21.626Z,64.80
2022-09-10T10:18:48.304Z,64.73
2022-09-10T10:21:20.365Z,65.04
2022-09-10T10:23:47.860Z,64.70
2022-09-10T10:26:20.517Z,64.10
2022-09-10T10:28:56.206Z,63.60
2022-09-10T10:31:23.791Z,63.63
2022-09-10T10:34:05.905Z,62.86
2022-09-10T10:36:40.708Z,62.39
2022-09-10T10:39:13.356Z,62.21
2022-09-10T10:41:59.361Z,62.10
2022-09-10T10:44:56.457Z,61.71
2022-09-10T10:47:33.034Z,61.08
2022-09-10T10:50:18.549Z,60.75
2022-09-10T10:53:09.213Z,59.82
2022-09-10T10:55:40.611Z,59.62
2022-09-10T10:58:25.976Z,59.74
2022-09-10T11:00:58.507Z,59.26
2022-09-10T11:03:30.212Z,58.69
2022-09-10T11:06:01.124Z,57.84
2022-09-10T11:08:33.424Z,57.48
2022-09-10T11:11:03.966Z,57.02
2022-09-10T11:13:37.042Z,56.81
2022-09-10T11:16:07.101Z,56.60
2022-09-10T11:18:39.455Z,56.73
2022-09-10T11:21:31.386Z,56.90
2022-09-10T11:24:02.092Z,57.01
2022-09-10T11:26:37.310Z,57.27
2022-09-10T11:29:22.877Z,57.34
2022-09-10T11:32:08.952Z,57.86
2022-09-10T11:34:44.703Z,58.33
2022-09-10T11:37:19.393Z,58.10
2022-09-10T11:39:49.390Z,57.97
2022-09-10T11:42:36.989Z,57.61
2022-09-10T11:45:13.888Z,56.78
2022-09-10T11:47:43.469Z,56.21
2022-09-10T11:50:38.232Z,55.86
2022-09-10T11:53:07.846Z,55.59
2022-09-10T11:56:05.218Z,55.40
2022-09-10T11:58:45.524Z,56.08
2022-09-10T12:01:22.458Z,55.96
2022-09-10T12:04:04.514Z,56.07
2022-09-10T12:06:52.325Z,56.06
2022-09-10T12:09:34.887Z,56.07
2022-09-10T12:12:10.882Z,56.56
2022-09-10T12:14:38.955Z,56.74
2022-09-10T12:17:14.690Z,56.42
2022-09-10T12:19:46.981Z,56.46
2022-09-10T12:22:37.735Z,56.28
2022-09-10T12:25:07.912Z,56.00
2022-09-10T12:27:43.946Z,55.08
2022-09-10T12:30:27.608Z,54.26
2022-09-10T12:32:55.772Z,53.99
2022-09-10T12:35:31.534Z,53.70
2022-09-10T12:38:35.888Z,52.65
2022-09-10T12:41:10.355Z,52.11
2022-09-10T12:43:40.240Z,51.83
2022-09-10T12:46:07.457Z,51.82
2022-09-10T12:48:36.859Z,51.25
2022-09-10T12:51:38.894Z,50.55
2022-09-10T12:54:16.242Z,50.51
2022-09-10T12:57:03.810Z,50.20
2022-09-10T12:59:46.519Z,50.86
2022-09-10T13:02:46.482Z,51.00
2022-09-10T13:05:24.948Z,51.07
2022-09-10T13:08:11.519Z,51.32
2022-09-10T13:10:39.267Z,50.79
2022-09-10T13:13:23.815Z,49.89
2022-09-10T13:15:52.192Z,49.50
2022-09-10T13:18:30.881Z,49.11
2022-09-10T13:20:58.739Z,48.88
2022-09-10T13:23:52.513Z,48.04
2022-09-10T13:26:28.458Z,47.53
2022-09-10T13:28:55.210Z,47.24
2022-09-10T13:31:28.289Z,47.38
2022-09-10T13:34:14.250Z,46.43
2022-09-10T13:36:52.409Z,45.79
2022-09-10T13:40:10.550Z,45.58
2022-09-10T13:42:46.136Z,45.22
2022-09-10T13:45:36.525Z,44.75
2022-09-10T13:48:11.010Z,44.63
2022-09-10T13:51:05.963Z,45.13
2022-09-10T13:53:33.480Z,45.28
2022-09-10T13:56:03.681Z,44.82
2022-09-10T13:58:35.565Z,44.40
2022-09-10T14:01:04.454Z,45.17
2022-09-10T14:03:36.073Z,45.50
2022-09-10T14:06:08.368Z,45.61
2022-09-10T14:08:45.188Z,46.09
2022-09-10T14:11:11.782Z,46.16
2022-09-10T14:13:47.656Z,46.24
2022-09-10T14:16:19.520Z,46.30
2022-09-10T14:18:51.055Z,46.03
2022-09-10T14:21:19.533Z,45.71
2022-09-10T14:23:47.965Z,45.56
2022-09-10T14:26:24.291Z,45.02
2022-09-10T14:28:52.441Z,44.37
2022-09-10T14:31:27.491Z,44.32
2022-09-10T14:33:55.991Z,44.50
2022-09-10T14:36:33.654Z,44.38
2022-09-10T14:39:20.871Z,44.83
2022-09-10T14:41:48.530Z,45.46
2022-09-10T14:44:20.503Z,47.00
2022-09-10T14:46:58.938Z,50.62
2022-09-10T14:49:34.172Z,52.07
2022-09-10T14:52:01.944Z,52.83
2022-09-10T14:54:30.571Z,53.07
2022-09-10T14:56:58.238Z,52.39
2022-09-10T14:59:33.122Z,51.89
2022-09-10T15:02:03.446Z,51.20
2022-09-10T15:04:30.262Z,51.77
2022-09-10T15:06:58.771Z,51.40
2022-09-10T15:09:27.297Z,51.66
2022-09-10T15:11:56.888Z,52.24
2022-09-10T15:14:23.762Z,51.71
2022-09-10T15:16:52.220Z,51.76
2022-09-10T15:19:19.840Z,52.23
2022-09-10T15:21:46.823Z,51.44
2022-09-10T15:24:15.574Z,51.09
2022-09-10T15:26:42.777Z,49.23
2022-09-10T15:29:10.275Z,46.54
2022-09-10T15:31:37.671Z,44.61
2022-09-10T15:34:06.574Z,45.02
2022-09-10T15:36:35.262Z,46.25
2022-09-10T15:39:01.935Z,46.49
2022-09-10T15:41:29.455Z,46.18
2022-09-10T15:43:56.839Z,44.88
2022-09-10T15:46:26.642Z,46.08
2022-09-10T15:48:54.004Z,47.27
2022-09-10T15:51:23.354Z,48.06
2022-09-10T15:53:51.483Z,47.66
2022-09-10T15:56:19.275Z,48.40
2022-09-10T15:58:55.122Z,48.80
2022-09-10T16:01:22.717Z,48.67
2022-09-10T16:03:51.752Z,48.04
2022-09-10T16:06:21.920Z,47.38
2022-09-10T16:08:56.708Z,47.42
2022-09-10T16:11:24.814Z,48.95
2022-09-10T16:13:51.514Z,50.22
2022-09-10T16:16:20.729Z,50.16
2022-09-10T16:18:48.408Z,49.96
2022-09-10T16:21:18.672Z,50.54
2022-09-10T16:23:46.277Z,50.99
2022-09-10T16:26:15.923Z,51.42
2022-09-10T16:28:58.307Z,52.08
2022-09-10T16:31:27.418Z,51.78
2022-09-10T16:33:55.366Z,51.36
2022-09-10T16:36:23.757Z,50.89
2022-09-10T16:38:56.188Z,50.04
2022-09-10T16:41:24.355Z,49.63
2022-09-10T16:43:51.540Z,50.25
2022-09-10T16:46:19.165Z,50.62
2022-09-10T16:48:45.929Z,50.19
2022-09-10T16:51:17.139Z,51.79
2022-09-10T16:53:45.247Z,53.21
2022-09-10T16:56:14.713Z,55.08
2022-09-10T16:58:42.567Z,57.52
2022-09-10T17:01:12.652Z,58.42
2022-09-10T17:03:40.891Z,59.47
2022-09-10T17:06:20.628Z,60.65
2022-09-10T17:08:47.809Z,61.84
2022-09-10T17:11:16.468Z,63.34
2022-09-10T17:13:43.439Z,64.10
2022-09-10T17:16:23.168Z,64.74
2022-09-10T17:19:18.512Z,65.43
2022-09-10T17:21:48.894Z,66.25
2022-09-10T17:24:15.555Z,66.97
2022-09-10T17:26:42.237Z,67.98
2022-09-10T17:29:17.204Z,68.52
2022-09-10T17:31:46.665Z,68.81
2022-09-10T17:34:14.495Z,69.20
2022-09-10T17:36:43.346Z,69.89
2022-09-10T17:39:10.500Z,70.21
2022-09-10T17:41:37.457Z,71.00
2022-09-10T17:44:04.175Z,70.86
2022-09-10T17:46:31.540Z,71.18
2022-09-10T17:49:00.094Z,70.85
2022-09-10T17:51:31.491Z,70.42
2022-09-10T17:53:58.533Z,70.51
2022-09-10T17:56:26.466Z,70.88
2022-09-10T17:59:01.775Z,71.10
2022-09-10T18:01:32.698Z,71.69
2022-09-10T18:03:59.527Z,71.69
2022-09-10T18:06:29.112Z,71.77
2022-09-10T18:09:03.020Z,71.25
2022-09-10T18:11:32.344Z,71.26
2022-09-10T18:14:00.299Z,71.63
2022-09-10T18:16:29.505Z,71.65
2022-09-10T18:19:01.791Z,71.75
2022-09-10T18:21:31.153Z,72.49
2022-09-10T18:24:04.665Z,73.00
2022-09-10T18:26:34.718Z,73.36
2022-09-10T18:29:04.506Z,73.24
2022-09-10T18:31:33.621Z,73.56
2022-09-10T18:34:01.593Z,73.61
2022-09-10T18:36:31.821Z,73.27
2022-09-10T18:39:02.295Z,73.52
2022-09-10T18:41:31.614Z,73.49
2022-09-10T18:44:00.837Z,73.68
2022-09-10T18:46:29.140Z,74.04
2022-09-10T18:48:56.121Z,74.03
2022-09-10T18:51:24.981Z,73.67
2022-09-10T18:53:56.733Z,74.16
2022-09-10T18:56:25.453Z,74.05
2022-09-10T18:59:00.633Z,74.28
2022-09-10T19:01:29.349Z,74.37
2022-09-10T19:03:57.668Z,74.81
2022-09-10T19:06:30.152Z,75.08
2022-09-10T19:09:01.820Z,75.18
2022-09-10T19:11:34.193Z,75.08
2022-09-10T19:14:03.284Z,75.36
2022-09-10T19:16:31.670Z,75.78
2022-09-10T19:19:01.084Z,75.93
2022-09-10T19:21:28.935Z,76.53
2022-09-10T19:24:01.688Z,76.49
2022-09-10T19:26:34.088Z,76.42
2022-09-10T19:29:01.852Z,76.41
2022-09-10T19:31:30.156Z,76.90
2022-09-10T19:34:01.912Z,76.56
2022-09-10T19:36:30.954Z,76.85
2022-09-10T19:38:59.620Z,76.88
2022-09-10T19:41:26.381Z,77.04
2022-09-10T19:43:54.573Z,76.87
2022-09-10T19:46:23.290Z,76.69
2022-09-10T19:48:51.870Z,76.93
2022-09-10T19:51:20.367Z,76.94
2022-09-10T19:53:48.113Z,77.19
2022-09-10T19:56:20.685Z,77.33
2022-09-10T19:58:52.553Z,77.47
2022-09-10T20:01:24.618Z,77.27
2022-09-10T20:03:53.434Z,77.41
2022-09-10T20:06:21.627Z,77.50
2022-09-10T20:08:50.445Z,77.27
2022-09-10T20:11:23.368Z,77.65
2022-09-10T20:13:54.748Z,77.98
2022-09-10T20:16:22.211Z,77.86
2022-09-10T20:18:49.522Z,78.04
2022-09-10T20:21:18.557Z,78.27
2022-09-10T20:23:47.125Z,78.52
2022-09-10T20:26:16.119Z,78.20
2022-09-10T20:28:44.211Z,78.29
2022-09-10T20:31:13.001Z,78.17
2022-09-10T20:33:42.391Z,78.15
2022-09-10T20:36:13.044Z,78.18
2022-09-10T20:38:40.860Z,78.81
2022-09-10T20:41:07.989Z,78.69
2022-09-10T20:43:34.689Z,78.46
2022-09-10T20:46:01.542Z,78.45
2022-09-10T20:48:28.268Z,78.42
2022-09-10T20:50:56.851Z,78.41
2022-09-10T20:53:23.581Z,78.40
2022-09-10T20:55:50.627Z,78.84
2022-09-10T20:58:17.764Z,78.84
2022-09-10T21:00:45.597Z,78.81
2022-09-10T21:03:12.882Z,78.82
2022-09-10T21:05:39.832Z,78.82
2022-09-10T21:08:06.737Z,79.04
2022-09-10T21:10:37.436Z,79.24
2022-09-10T21:13:04.581Z,79.13
2022-09-10T21:15:31.437Z,79.06
2022-09-10T21:17:58.808Z,78.70
2022-09-10T21:20:25.879Z,78.63
2022-09-10T21:22:52.792Z,78.59
2022-09-10T21:25:19.583Z,78.54
2022-09-10T21:27:47.310Z,78.55
2022-09-10T21:30:14.028Z,78.70
2022-09-10T21:32:40.672Z,78.57
2022-09-10T21:35:07.775Z,78.70
2022-09-10T21:37:34.701Z,78.47
2022-09-10T21:40:02.294Z,78.65
2022-09-10T21:42:29.021Z,78.69
2022-09-10T21:44:55.713Z,78.56
2022-09-10T21:47:22.389Z,78.12
2022-09-10T21:49:49.032Z,78.44
2022-09-10T21:52:15.680Z,78.65
2022-09-10T21:54:42.340Z,79.02
2022-09-10T21:57:11.544Z,78.66
2022-09-10T21:59:38.276Z,78.71
2022-09-10T22:02:05.083Z,78.86
2022-09-10T22:04:31.896Z,79.12
2022-09-10T22:06:58.789Z,78.81
2022-09-10T22:09:26.410Z,78.91
2022-09-10T22:11:54.261Z,79.20
2022-09-10T22:14:23.028Z,78.94
2022-09-10T22:16:50.716Z,79.25
2022-09-10T22:19:19.968Z,79.51
2022-09-10T22:21:47.201Z,79.44
2022-09-10T22:24:14.782Z,79.27
2022-09-10T22:26:43.493Z,79.46
2022-09-10T22:29:10.753Z,79.30
2022-09-10T22:31:37.730Z,79.11
2022-09-10T22:34:15.987Z,79.43
2022-09-10T22:36:44.386Z,79.44
2022-09-10T22:39:13.598Z,79.60
2022-09-10T22:41:40.421Z,79.81
2022-09-10T22:44:07.756Z,80.01
2022-09-10T22:46:35.026Z,79.80
2022-09-10T22:49:01.988Z,80.20
2022-09-10T22:51:30.800Z,80.31
2022-09-10T22:53:58.238Z,79.95
2022-09-10T22:56:28.886Z,80.15
2022-09-10T22:58:57.512Z,80.07
2022-09-10T23:01:27.756Z,80.11
2022-09-10T23:03:59.358Z,80.27
2022-09-10T23:06:28.469Z,79.94
2022-09-10T23:08:59.805Z,80.20
2022-09-10T23:11:29.159Z,79.99
2022-09-10T23:13:58.175Z,79.67
2022-09-10T23:16:28.975Z,79.68
2022-09-10T23:18:56.842Z,79.83
2022-09-10T23:21:25.256Z,79.65
2022-09-10T23:23:54.536Z,79.58
2022-09-10T23:26:21.887Z,79.84
2022-09-10T23:28:48.867Z,79.84
2022-09-10T23:31:17.905Z,80.11
2022-09-10T23:33:59.319Z,79.93
2022-09-10T23:36:27.959Z,80.19
2022-09-10T23:38:54.633Z,79.97
2022-09-10T23:41:21.748Z,79.95
2022-09-10T23:43:51.405Z,80.06
2022-09-10T23:46:18.775Z,80.18
2022-09-10T23:48:49.497Z,80.23
2022-09-10T23:51:17.290Z,80.18
2022-09-10T23:53:45.183Z,80.09
2022-09-10T23:56:13.023Z,79.79
2022-09-10T23:58:39.833Z,80.01
